createdAt,value
2017-08-29T00:01:47.471Z,19.10
2017-08-29T00:04:14.983Z,19.10
2017-08-29T00:06:42.509Z,19.10
2017-08-29T00:09:10.068Z,19.00
2017-08-29T00:11:38.367Z,19.00
2017-08-29T00:14:05.871Z,19.00
2017-08-29T00:16:33.391Z,19.10
2017-08-29T00:19:00.899Z,19.00
2017-08-29T00:21:29.170Z,19.00
2017-08-29T00:23:56.693Z,19.00
2017-08-29T00:26:24.291Z,19.00
2017-08-29T00:28:51.815Z,18.90
2017-08-29T00:31:19.310Z,18.90
2017-08-29T00:33:46.830Z,18.90
2017-08-29T00:36:14.335Z,18.80
2017-08-29T00:38:42.615Z,18.80
2017-08-29T00:41:10.120Z,18.70
2017-08-29T00:43:37.647Z,18.80
2017-08-29T00:46:05.926Z,18.70
2017-08-29T00:48:33.443Z,18.70
2017-08-29T00:51:00.947Z,18.70
2017-08-29T00:53:29.255Z,18.70
2017-08-29T00:55:56.755Z,18.60
2017-08-29T00:58:24.291Z,18.60
2017-08-29T01:00:51.791Z,18.60
2017-08-29T01:03:19.295Z,18.60
2017-08-29T01:05:46.819Z,18.60
2017-08-29T01:08:15.102Z,18.60
2017-08-29T01:10:42.619Z,18.60
2017-08-29T01:13:10.127Z,18.50
2017-08-29T01:15:37.643Z,18.50
2017-08-29T01:18:05.161Z,18.40
2017-08-29T01:20:33.828Z,18.30
2017-08-29T01:23:01.336Z,18.30
2017-08-29T01:25:29.255Z,18.30
2017-08-29T01:27:56.751Z,18.20
2017-08-29T01:30:24.276Z,18.20
2017-08-29T01:32:51.792Z,18.00
2017-08-29T01:35:19.324Z,17.90
2017-08-29T01:37:46.838Z,18.00
2017-08-29T01:40:14.742Z,17.90
2017-08-29T01:42:42.263Z,17.90
2017-08-29T01:45:10.160Z,17.90
2017-08-29T01:47:37.679Z,17.90
2017-08-29T01:50:05.191Z,17.80
2017-08-29T01:52:33.867Z,17.80
2017-08-29T01:55:01.369Z,17.70
2017-08-29T01:57:30.027Z,17.60
2017-08-29T01:59:57.576Z,17.60
2017-08-29T02:02:25.872Z,17.60
2017-08-29T02:04:53.772Z,17.70
2017-08-29T02:07:21.308Z,17.70
2017-08-29T02:09:48.810Z,17.60
2017-08-29T02:14:45.178Z,17.60
2017-08-29T02:17:12.707Z,17.60
2017-08-29T02:19:40.211Z,17.60
2017-08-29T02:22:08.484Z,17.70
2017-08-29T02:24:36.411Z,17.70
2017-08-29T02:27:04.687Z,17.70
2017-08-29T02:32:53.456Z,17.40
2017-08-29T02:35:20.964Z,17.30
2017-08-29T02:37:48.486Z,17.20
2017-08-29T02:40:15.990Z,17.20
2017-08-29T02:42:44.625Z,17.20
2017-08-29T02:45:12.147Z,17.20
2017-08-29T02:47:40.427Z,17.20
2017-08-29T02:50:07.954Z,17.30
2017-08-29T02:52:35.454Z,17.30
2017-08-29T02:55:03.747Z,17.30
2017-08-29T02:57:31.244Z,17.20
2017-08-29T02:59:58.767Z,17.20
2017-08-29T03:02:26.273Z,17.20
2017-08-29T03:04:53.791Z,17.10
2017-08-29T03:07:21.290Z,17.00
2017-08-29T03:09:48.811Z,17.00
2017-08-29T03:12:16.312Z,17.00
2017-08-29T03:14:43.864Z,17.00
2017-08-29T03:17:11.377Z,17.00
2017-08-29T03:19:38.881Z,17.00
2017-08-29T03:22:06.808Z,17.00
2017-08-29T03:24:34.310Z,17.10
2017-08-29T03:27:01.827Z,17.20
2017-08-29T03:29:29.331Z,17.20
2017-08-29T03:31:57.247Z,17.10
2017-08-29T03:34:24.754Z,17.10
2017-08-29T03:41:49.987Z,17.20
2017-08-29T03:44:17.523Z,17.20
2017-08-29T03:46:45.039Z,17.20
2017-08-29T03:49:12.539Z,17.10
2017-08-29T03:51:40.460Z,17.20
2017-08-29T03:54:08.347Z,17.20
2017-08-29T03:56:36.268Z,17.20
2017-08-29T03:59:03.763Z,17.10
2017-08-29T04:01:31.284Z,17.10
2017-08-29T04:03:58.807Z,17.10
2017-08-29T04:06:26.303Z,17.10
2017-08-29T04:08:53.824Z,17.10
2017-08-29T04:11:22.467Z,17.10
2017-08-29T04:13:50.379Z,17.00
2017-08-29T04:16:17.885Z,17.00
2017-08-29T04:18:45.406Z,17.00
2017-08-29T04:21:12.903Z,16.90
2017-08-29T04:23:40.428Z,16.90
2017-08-29T04:26:07.932Z,16.90
2017-08-29T04:28:36.228Z,16.90
2017-08-29T04:31:03.719Z,16.90
2017-08-29T04:33:31.219Z,16.80
2017-08-29T04:35:58.746Z,16.80
2017-08-29T04:38:27.027Z,16.80
2017-08-29T04:40:54.543Z,16.70
2017-08-29T04:43:22.036Z,16.70
2017-08-29T04:45:49.615Z,16.70
2017-08-29T04:48:17.107Z,16.70
2017-08-29T04:50:44.632Z,16.80
2017-08-29T04:53:13.019Z,16.80
2017-08-29T04:55:41.686Z,16.80
2017-08-29T04:58:09.187Z,16.90
2017-08-29T05:00:36.714Z,16.80
2017-08-29T05:03:04.210Z,16.80
2017-08-29T05:05:32.483Z,16.80
2017-08-29T05:08:00.405Z,16.80
2017-08-29T05:10:27.910Z,16.90
2017-08-29T05:12:55.831Z,16.80
2017-08-29T05:15:23.750Z,16.70
2017-08-29T05:17:51.275Z,16.60
2017-08-29T05:22:47.638Z,16.50
2017-08-29T05:25:15.908Z,16.60
2017-08-29T05:27:43.826Z,16.60
2017-08-29T05:30:11.330Z,16.60
2017-08-29T05:32:38.855Z,16.60
2017-08-29T05:35:06.359Z,16.70
2017-08-29T05:37:33.897Z,16.70
2017-08-29T05:40:01.391Z,16.70
2017-08-29T05:42:28.891Z,16.80
2017-08-29T05:44:56.402Z,16.70
2017-08-29T05:47:23.918Z,16.80
2017-08-29T05:49:51.443Z,16.70
2017-08-29T05:52:18.950Z,16.70
2017-08-29T05:54:46.468Z,16.70
2017-08-29T05:57:13.972Z,16.70
2017-08-29T05:59:42.272Z,16.70
2017-08-29T06:02:09.779Z,16.70
2017-08-29T06:04:37.687Z,16.70
2017-08-29T06:07:05.184Z,16.70
2017-08-29T06:09:33.099Z,16.80
2017-08-29T06:12:00.607Z,16.80
2017-08-29T06:14:28.131Z,16.90
2017-08-29T06:16:55.699Z,17.00
2017-08-29T06:19:23.226Z,17.10
2017-08-29T06:21:51.122Z,17.40
2017-08-29T06:24:20.147Z,17.50
2017-08-29T06:26:48.435Z,17.60
2017-08-29T06:29:17.075Z,17.80
2017-08-29T06:31:45.738Z,18.00
2017-08-29T06:34:13.258Z,18.10
2017-08-29T06:41:39.384Z,18.50
2017-08-29T06:44:06.892Z,18.60
2017-08-29T06:46:34.815Z,18.50
2017-08-29T06:49:02.328Z,18.50
2017-08-29T06:51:31.363Z,18.50
2017-08-29T06:53:58.863Z,18.60
2017-08-29T06:56:27.887Z,18.80
2017-08-29T06:58:55.383Z,18.80
2017-08-29T07:01:22.910Z,18.90
2017-08-29T07:03:50.419Z,19.10
2017-08-29T07:06:17.922Z,19.30
2017-08-29T07:08:45.439Z,19.40
2017-08-29T07:11:12.941Z,19.50
2017-08-29T07:13:40.462Z,19.70
2017-08-29T07:16:07.958Z,19.70
2017-08-29T07:18:35.484Z,19.80
2017-08-29T07:21:03.383Z,19.80
2017-08-29T07:23:30.914Z,20.00
2017-08-29T07:25:59.186Z,20.10
2017-08-29T07:28:26.703Z,20.30
2017-08-29T07:30:54.219Z,20.40
2017-08-29T07:33:21.747Z,20.50
2017-08-29T07:35:49.268Z,20.50
2017-08-29T07:40:46.022Z,20.60
2017-08-29T07:43:13.550Z,20.70
2017-08-29T07:45:42.576Z,20.90
2017-08-29T07:48:10.091Z,20.90
2017-08-29T07:50:37.616Z,20.90
2017-08-29T07:53:05.119Z,21.00
2017-08-29T07:55:32.631Z,21.20
2017-08-29T07:58:00.141Z,21.30
2017-08-29T08:00:27.651Z,21.40
2017-08-29T08:02:55.173Z,21.40
2017-08-29T08:05:22.697Z,21.50
2017-08-29T08:10:19.471Z,21.80
2017-08-29T08:12:46.983Z,21.90
2017-08-29T08:15:14.507Z,22.10
2017-08-29T08:17:43.611Z,22.40
2017-08-29T08:20:11.145Z,22.40
2017-08-29T08:22:38.655Z,22.60
2017-08-29T08:25:06.159Z,22.70
2017-08-29T08:27:33.691Z,22.80
2017-08-29T08:30:01.210Z,23.00
2017-08-29T08:32:28.734Z,23.30
2017-08-29T08:34:56.232Z,23.50
2017-08-29T08:37:24.160Z,23.50
2017-08-29T08:39:51.654Z,23.40
2017-08-29T08:42:19.178Z,23.60
2017-08-29T08:44:46.692Z,23.70
2017-08-29T08:47:14.219Z,23.60
2017-08-29T08:49:41.721Z,23.60
2017-08-29T08:52:09.247Z,23.70
2017-08-29T08:54:36.747Z,23.70
2017-08-29T08:57:04.639Z,23.70
2017-08-29T08:59:32.568Z,23.80
2017-08-29T09:02:00.063Z,23.90
2017-08-29T09:04:27.988Z,23.90
2017-08-29T09:06:55.495Z,24.10
2017-08-29T09:09:23.417Z,24.40
2017-08-29T09:11:51.319Z,24.40
2017-08-29T09:14:19.605Z,24.50
2017-08-29T09:16:47.507Z,24.40
2017-08-29T09:21:45.002Z,24.60
2017-08-29T09:24:12.539Z,24.70
2017-08-29T09:26:40.032Z,24.70
2017-08-29T09:29:08.311Z,24.70
2017-08-29T09:31:36.204Z,24.80
2017-08-29T09:34:03.741Z,24.90
2017-08-29T09:36:31.244Z,24.80
2017-08-29T09:38:58.739Z,24.90
2017-08-29T09:41:27.457Z,25.10
2017-08-29T09:43:54.954Z,25.30
2017-08-29T09:46:23.235Z,25.40
2017-08-29T09:48:51.510Z,25.50
2017-08-29T09:51:19.033Z,25.70
2017-08-29T09:53:46.535Z,25.90
2017-08-29T09:56:14.059Z,26.10
2017-08-29T09:58:41.572Z,26.20
2017-08-29T10:01:09.096Z,26.20
2017-08-29T10:03:36.592Z,26.10
2017-08-29T10:06:04.126Z,26.40
2017-08-29T10:08:31.623Z,26.40
2017-08-29T10:11:00.254Z,26.50
2017-08-29T10:15:57.389Z,26.60
2017-08-29T10:18:24.914Z,26.80
2017-08-29T10:20:52.411Z,27.10
2017-08-29T10:23:20.695Z,27.10
2017-08-29T10:25:48.190Z,27.20
2017-08-29T10:28:16.096Z,27.20
2017-08-29T10:30:43.607Z,27.40
2017-08-29T10:33:11.142Z,27.50
2017-08-29T10:35:38.700Z,27.50
2017-08-29T10:38:06.215Z,27.60
2017-08-29T10:40:33.719Z,27.60
2017-08-29T10:43:01.235Z,27.90
2017-08-29T10:45:29.131Z,27.80
2017-08-29T10:47:57.390Z,27.70
2017-08-29T10:50:26.415Z,27.30
2017-08-29T10:52:54.491Z,26.60
2017-08-29T10:55:22.031Z,26.00
2017-08-29T10:57:49.567Z,25.70
2017-08-29T11:00:18.598Z,25.50
2017-08-29T11:02:46.106Z,25.50
2017-08-29T11:05:14.389Z,25.30
2017-08-29T11:07:41.886Z,25.10
2017-08-29T11:10:09.403Z,24.90
2017-08-29T11:12:36.903Z,24.90
2017-08-29T11:15:05.195Z,24.90
2017-08-29T11:17:32.699Z,24.90
2017-08-29T11:20:00.635Z,25.00
2017-08-29T11:22:28.160Z,25.00
2017-08-29T11:24:55.657Z,24.90
2017-08-29T11:27:23.568Z,25.00
2017-08-29T11:29:51.468Z,25.10
2017-08-29T11:32:20.136Z,25.20
2017-08-29T11:34:48.036Z,25.10
2017-08-29T11:37:16.323Z,25.10
2017-08-29T11:39:43.838Z,25.00
2017-08-29T11:42:11.367Z,25.10
2017-08-29T11:44:38.872Z,25.10
2017-08-29T11:47:07.901Z,25.10
2017-08-29T11:49:35.395Z,25.20
2017-08-29T11:52:03.323Z,25.20
2017-08-29T11:54:30.840Z,25.20
2017-08-29T11:56:58.335Z,25.20
2017-08-29T11:59:25.853Z,25.10
2017-08-29T12:01:53.762Z,25.10
2017-08-29T12:04:22.043Z,25.20
2017-08-29T12:06:49.554Z,25.20
2017-08-29T12:09:17.089Z,25.20
2017-08-29T12:11:44.590Z,25.10
2017-08-29T12:14:12.111Z,25.10
2017-08-29T12:16:39.607Z,25.10
2017-08-29T12:19:07.149Z,25.20
2017-08-29T12:21:35.054Z,25.20
2017-08-29T12:24:02.587Z,25.10
2017-08-29T12:26:30.082Z,25.20
2017-08-29T12:28:58.351Z,25.30
2017-08-29T12:31:25.869Z,25.30
2017-08-29T12:33:53.371Z,25.30
2017-08-29T12:36:20.904Z,25.30
2017-08-29T12:38:49.163Z,25.40
2017-08-29T12:41:16.690Z,25.50
2017-08-29T12:43:44.589Z,25.50
2017-08-29T12:46:12.880Z,25.70
2017-08-29T12:48:40.779Z,25.70
2017-08-29T12:51:08.311Z,25.60
2017-08-29T12:53:35.819Z,25.50
2017-08-29T12:56:04.096Z,25.50
2017-08-29T12:58:32.008Z,25.60
2017-08-29T13:00:59.498Z,25.60
2017-08-29T13:03:27.024Z,25.60
2017-08-29T13:05:54.543Z,25.60
2017-08-29T13:08:22.067Z,25.60
2017-08-29T13:10:50.347Z,25.60
2017-08-29T13:13:17.869Z,25.60
2017-08-29T13:15:46.123Z,25.70
2017-08-29T13:18:13.643Z,25.80
2017-08-29T13:20:41.919Z,25.80
2017-08-29T13:23:09.458Z,25.80
2017-08-29T13:25:36.967Z,25.70
2017-08-29T13:28:04.495Z,25.70
2017-08-29T13:30:32.023Z,25.70
2017-08-29T13:32:59.546Z,25.70
2017-08-29T13:35:27.070Z,25.70
2017-08-29T13:37:54.575Z,25.70
2017-08-29T13:40:22.091Z,25.70
2017-08-29T13:42:49.591Z,25.70
2017-08-29T13:45:18.254Z,25.70
2017-08-29T13:47:45.759Z,25.80
2017-08-29T13:50:13.282Z,25.80
2017-08-29T13:52:40.781Z,25.80
2017-08-29T13:55:09.419Z,25.80
2017-08-29T13:57:36.954Z,25.90
2017-08-29T14:00:05.224Z,26.00
2017-08-29T14:02:32.748Z,26.00
2017-08-29T14:05:00.252Z,25.90
2017-08-29T14:07:28.531Z,25.90
2017-08-29T14:09:56.026Z,25.80
2017-08-29T14:12:23.548Z,25.70
2017-08-29T14:14:51.043Z,25.80
2017-08-29T14:17:20.075Z,25.70
2017-08-29T14:19:47.580Z,25.80
2017-08-29T14:22:15.114Z,25.80
2017-08-29T14:24:42.632Z,25.80
2017-08-29T14:27:10.130Z,25.90
2017-08-29T14:29:37.656Z,25.80
2017-08-29T14:32:05.151Z,25.70
2017-08-29T14:34:32.672Z,25.90
2017-08-29T14:37:00.186Z,25.80
2017-08-29T14:39:27.715Z,25.70
2017-08-29T14:41:55.206Z,25.70
2017-08-29T14:44:22.730Z,25.70
2017-08-29T14:47:01.999Z,25.70
2017-08-29T14:49:29.531Z,25.70
2017-08-29T14:51:57.047Z,25.70
2017-08-29T14:54:24.576Z,25.70
2017-08-29T14:56:52.474Z,25.60
2017-08-29T14:59:20.796Z,25.60
2017-08-29T15:01:49.067Z,25.70
2017-08-29T15:04:17.723Z,25.70
2017-08-29T15:06:45.215Z,25.60
2017-08-29T15:09:13.510Z,25.60
2017-08-29T15:11:41.014Z,25.60
2017-08-29T15:14:09.658Z,25.60
2017-08-29T15:19:06.451Z,25.70
2017-08-29T15:21:33.979Z,25.70
2017-08-29T15:24:01.488Z,25.70
2017-08-29T15:26:29.877Z,25.70
2017-08-29T15:28:57.376Z,25.80
2017-08-29T15:31:24.894Z,25.70
2017-08-29T15:33:52.392Z,25.70
2017-08-29T15:36:19.917Z,25.60
2017-08-29T15:38:47.415Z,25.60
2017-08-29T15:41:14.943Z,25.60
2017-08-29T15:43:42.457Z,25.60
2017-08-29T15:46:09.954Z,25.60
2017-08-29T15:48:37.474Z,25.60
2017-08-29T15:51:06.479Z,25.60
2017-08-29T15:53:33.999Z,25.50
2017-08-29T15:56:02.279Z,25.50
2017-08-29T15:58:29.811Z,25.40
2017-08-29T16:00:58.079Z,25.40
2017-08-29T16:03:26.359Z,25.40
2017-08-29T16:05:53.858Z,25.40
2017-08-29T16:08:21.379Z,25.30
2017-08-29T16:10:49.274Z,25.20
2017-08-29T16:13:17.547Z,25.20
2017-08-29T16:15:45.462Z,25.10
2017-08-29T16:18:13.354Z,25.10
2017-08-29T16:20:40.886Z,25.10
2017-08-29T16:23:08.786Z,25.10
2017-08-29T16:25:36.334Z,25.10
2017-08-29T16:28:03.831Z,25.10
2017-08-29T16:30:31.362Z,25.10
2017-08-29T16:32:59.250Z,25.00
2017-08-29T16:35:26.776Z,25.00
2017-08-29T16:37:54.675Z,24.90
2017-08-29T16:40:22.956Z,24.80
2017-08-29T16:42:50.455Z,24.80
2017-08-29T16:45:17.967Z,24.80
2017-08-29T16:47:45.885Z,24.80
2017-08-29T16:50:13.395Z,24.70
2017-08-29T16:52:40.920Z,24.60
2017-08-29T16:55:08.419Z,24.60
2017-08-29T16:57:35.954Z,24.60
2017-08-29T17:00:03.466Z,24.60
2017-08-29T17:02:31.026Z,24.50
2017-08-29T17:04:58.519Z,24.40
2017-08-29T17:07:26.040Z,24.40
2017-08-29T17:09:53.548Z,24.30
2017-08-29T17:12:21.091Z,24.20
2017-08-29T17:14:48.582Z,24.10
2017-08-29T17:17:17.215Z,24.10
2017-08-29T17:19:45.141Z,24.00
2017-08-29T17:22:13.426Z,23.90
2017-08-29T17:24:41.355Z,23.90
2017-08-29T17:27:08.873Z,23.90
2017-08-29T17:29:36.411Z,23.80
2017-08-29T17:34:32.805Z,23.80
2017-08-29T17:37:00.311Z,23.70
2017-08-29T17:39:27.839Z,23.70
2017-08-29T17:41:55.606Z,23.60
2017-08-29T17:44:23.135Z,23.50
2017-08-29T17:49:19.539Z,23.50
2017-08-29T17:51:47.818Z,23.50
2017-08-29T17:54:15.321Z,23.40
2017-08-29T17:56:43.607Z,23.40
2017-08-29T17:59:11.118Z,23.30
2017-08-29T18:01:38.635Z,23.30
2017-08-29T18:04:06.539Z,23.20
2017-08-29T18:06:34.062Z,23.10
2017-08-29T18:09:01.559Z,23.10
2017-08-29T18:11:29.093Z,23.10
2017-08-29T18:13:56.983Z,23.10
2017-08-29T18:16:24.544Z,23.10
2017-08-29T18:18:52.438Z,23.10
2017-08-29T18:21:21.467Z,23.10
2017-08-29T18:23:49.369Z,23.10
2017-08-29T18:26:16.903Z,23.10
2017-08-29T18:28:44.402Z,23.10
2017-08-29T18:31:12.299Z,23.10
2017-08-29T18:33:39.823Z,23.10
2017-08-29T18:36:08.823Z,23.00
2017-08-29T18:38:36.356Z,22.90
2017-08-29T18:41:03.867Z,22.80
2017-08-29T18:43:31.382Z,22.80
2017-08-29T18:45:58.883Z,22.80
2017-08-29T18:48:26.403Z,22.80
2017-08-29T18:50:54.676Z,22.80
2017-08-29T18:53:22.215Z,22.70
2017-08-29T18:55:49.725Z,22.70
2017-08-29T18:58:17.267Z,22.70
2017-08-29T19:00:44.775Z,22.80
2017-08-29T19:03:12.692Z,22.90
2017-08-29T19:05:40.972Z,23.00
2017-08-29T19:08:08.486Z,23.00
2017-08-29T19:10:36.004Z,22.90
2017-08-29T19:15:32.431Z,23.00
2017-08-29T19:18:00.339Z,23.00
2017-08-29T19:20:27.862Z,22.90
2017-08-29T19:22:56.863Z,22.90
2017-08-29T19:25:24.401Z,22.90
2017-08-29T19:27:53.063Z,22.90
2017-08-29T19:30:21.339Z,22.80
2017-08-29T19:32:48.915Z,22.80
2017-08-29T19:35:16.824Z,22.70
2017-08-29T19:37:45.855Z,22.70
2017-08-29T19:40:13.359Z,22.70
2017-08-29T19:42:42.024Z,22.60
2017-08-29T19:45:09.522Z,22.60
2017-08-29T19:47:37.047Z,22.50
2017-08-29T19:50:04.548Z,22.50
2017-08-29T19:52:32.083Z,22.50
2017-08-29T19:54:59.599Z,22.40
2017-08-29T19:57:27.114Z,22.40
2017-08-29T19:59:55.023Z,22.30
2017-08-29T20:02:22.547Z,22.30
2017-08-29T20:04:50.071Z,22.30
2017-08-29T20:07:17.980Z,22.30
2017-08-29T20:09:46.632Z,22.30
2017-08-29T20:12:15.297Z,22.20
2017-08-29T20:14:42.831Z,22.10
2017-08-29T20:17:11.156Z,22.10
2017-08-29T20:22:07.535Z,22.00
2017-08-29T20:24:35.067Z,21.90
2017-08-29T20:27:02.571Z,21.80
2017-08-29T20:29:30.075Z,21.70
2017-08-29T20:31:57.601Z,21.70
2017-08-29T20:34:25.117Z,21.60
2017-08-29T20:36:52.760Z,21.60
2017-08-29T20:39:20.267Z,21.50
2017-08-29T20:41:47.797Z,21.50
2017-08-29T20:44:16.086Z,21.40
2017-08-29T20:46:44.382Z,21.40
2017-08-29T20:49:11.883Z,21.30
2017-08-29T20:51:39.419Z,21.40
2017-08-29T20:54:06.920Z,21.40
2017-08-29T20:56:34.416Z,21.30
2017-08-29T20:59:02.695Z,21.20
2017-08-29T21:03:59.078Z,21.20
2017-08-29T21:06:27.354Z,21.10
2017-08-29T21:08:55.273Z,21.10
2017-08-29T21:11:22.786Z,21.00
2017-08-29T21:13:50.307Z,21.00
2017-08-29T21:16:18.203Z,20.90
2017-08-29T21:18:45.747Z,20.90
2017-08-29T21:23:42.912Z,20.80
2017-08-29T21:26:11.212Z,20.70
2017-08-29T21:28:38.710Z,20.70
2017-08-29T21:31:06.259Z,20.60
2017-08-29T21:33:34.888Z,20.60
2017-08-29T21:36:03.167Z,20.70
2017-08-29T21:38:30.678Z,20.60
2017-08-29T21:40:58.211Z,20.50
2017-08-29T21:43:25.723Z,20.50
2017-08-29T21:45:53.255Z,20.40
2017-08-29T21:48:20.756Z,20.30
2017-08-29T21:50:48.277Z,20.30
2017-08-29T21:53:15.779Z,20.30
2017-08-29T21:55:43.315Z,20.20
2017-08-29T21:58:10.826Z,20.20
2017-08-29T22:00:38.332Z,20.10
2017-08-29T22:03:05.847Z,20.10
2017-08-29T22:05:33.343Z,20.10
2017-08-29T22:08:00.866Z,20.10
2017-08-29T22:10:28.387Z,20.10
2017-08-29T22:12:55.915Z,20.00
2017-08-29T22:15:23.423Z,20.00
2017-08-29T22:17:50.956Z,19.90
2017-08-29T22:20:19.957Z,19.90
2017-08-29T22:22:47.483Z,19.80
2017-08-29T22:25:14.978Z,19.80
2017-08-29T22:27:42.529Z,19.70
2017-08-29T22:30:10.027Z,19.70
2017-08-29T22:32:37.539Z,19.70
2017-08-29T22:35:05.061Z,19.70
2017-08-29T22:37:32.567Z,19.60
2017-08-29T22:40:00.103Z,19.60
2017-08-29T22:42:27.612Z,19.60
2017-08-29T22:44:55.146Z,19.60
2017-08-29T22:47:22.659Z,19.60
2017-08-29T22:49:50.572Z,19.60
2017-08-29T22:52:18.843Z,19.60
2017-08-29T22:54:46.364Z,19.50
2017-08-29T22:57:15.017Z,19.40
2017-08-29T22:59:42.547Z,19.30
2017-08-29T23:02:10.047Z,19.30
2017-08-29T23:04:38.346Z,19.30
2017-08-29T23:07:05.852Z,19.30
2017-08-29T23:09:33.355Z,19.30
2017-08-29T23:12:02.396Z,19.20
2017-08-29T23:14:30.692Z,19.30
2017-08-29T23:16:58.231Z,19.20
2017-08-29T23:19:25.738Z,19.10
2017-08-29T23:21:53.661Z,19.10
2017-08-29T23:26:50.801Z,19.10
2017-08-29T23:29:18.309Z,19.10
2017-08-29T23:31:45.831Z,19.00
2017-08-29T23:34:13.374Z,19.00
2017-08-29T23:36:40.888Z,19.00
2017-08-29T23:39:08.387Z,18.90
2017-08-29T23:41:36.700Z,18.90
2017-08-29T23:44:04.595Z,18.90
2017-08-29T23:46:32.118Z,18.90
2017-08-29T23:48:59.647Z,18.90
2017-08-29T23:51:27.142Z,18.90
2017-08-29T23:53:55.419Z,18.80
2017-08-29T23:56:22.928Z,18.80
2017-08-29T23:58:50.458Z,18.70
